sensor_id;sensor_type;location;lat;lon;timestamp;pressure;altitude;pressure_sealevel;temperature;humidity
70546;BME280;58098;51.680;5.134;2023-01-16T00:01:50;99698.19;;;3.86;100.00
70546;BME280;58098;51.680;5.134;2023-01-16T00:04:16;99699.94;;;3.86;100.00
70546;BME280;58098;51.680;5.134;2023-01-16T00:06:41;99696.63;;;3.84;100.00
70546;BME280;58098;51.680;5.134;2023-01-16T00:09:08;99683.22;;;3.79;100.00
70546;BME280;58098;51.680;5.134;2023-01-16T00:11:33;99686.66;;;3.79;100.00
70546;BME280;58098;51.680;5.134;2023-01-16T00:13:58;99673.56;;;3.70;100.00
70546;BME280;58098;51.680;5.134;2023-01-16T00:16:25;99674.88;;;3.63;100.00
70546;BME280;58098;51.680;5.134;2023-01-16T00:18:51;99674.50;;;3.56;100.00
70546;BME280;58098;51.680;5.134;2023-01-16T00:21:17;99663.78;;;3.50;100.00
70546;BME280;58098;51.680;5.134;2023-01-16T00:23:42;99657.28;;;3.44;100.00
70546;BME280;58098;51.680;5.134;2023-01-16T00:26:08;99646.06;;;3.32;100.00
70546;BME280;58098;51.680;5.134;2023-01-16T00:28:35;99638.75;;;3.26;100.00
70546;BME280;58098;51.680;5.134;2023-01-16T00:31:03;99645.25;;;3.19;100.00
70546;BME280;58098;51.680;5.134;2023-01-16T00:33:29;99641.97;;;3.17;100.00
70546;BME280;58098;51.680;5.134;2023-01-16T00:35:55;99639.50;;;3.16;100.00
70546;BME280;58098;51.680;5.134;2023-01-16T00:38:20;99631.84;;;3.14;100.00
70546;BME280;58098;51.680;5.134;2023-01-16T00:40:45;99635.16;;;3.16;100.00
70546;BME280;58098;51.680;5.134;2023-01-16T00:43:11;99632.88;;;3.24;100.00
70546;BME280;58098;51.680;5.134;2023-01-16T00:45:36;99610.31;;;3.15;100.00
70546;BME280;58098;51.680;5.134;2023-01-16T00:48:02;99629.97;;;3.29;100.00
70546;BME280;58098;51.680;5.134;2023-01-16T00:50:27;99612.06;;;3.27;100.00
70546;BME280;58098;51.680;5.134;2023-01-16T00:52:52;99603.81;;;3.22;100.00
70546;BME280;58098;51.680;5.134;2023-01-16T00:55:18;99587.34;;;3.12;100.00
70546;BME280;58098;51.680;5.134;2023-01-16T00:57:43;99603.69;;;3.24;100.00
70546;BME280;58098;51.680;5.134;2023-01-16T01:00:09;99595.06;;;3.25;100.00
70546;BME280;58098;51.680;5.134;2023-01-16T01:02:34;99591.03;;;3.21;100.00
70546;BME280;58098;51.680;5.134;2023-01-16T01:05:00;99579.19;;;3.18;100.00
70546;BME280;58098;51.680;5.134;2023-01-16T01:07:25;99569.81;;;3.17;100.00
70546;BME280;58098;51.680;5.134;2023-01-16T01:09:50;99575.34;;;3.24;100.00
70546;BME280;58098;51.680;5.134;2023-01-16T01:12:16;99552.91;;;3.13;100.00
70546;BME280;58098;51.680;5.134;2023-01-16T01:14:41;99566.06;;;3.21;100.00
70546;BME280;58098;51.680;5.134;2023-01-16T01:17:06;99578.03;;;3.22;100.00
70546;BME280;58098;51.680;5.134;2023-01-16T01:19:32;99557.63;;;3.19;100.00
70546;BME280;58098;51.680;5.134;2023-01-16T01:21:57;99543.22;;;3.04;100.00
70546;BME280;58098;51.680;5.134;2023-01-16T01:24:23;99546.53;;;3.06;100.00
70546;BME280;58098;51.680;5.134;2023-01-16T01:26:48;99550.34;;;3.01;100.00
70546;BME280;58098;51.680;5.134;2023-01-16T01:29:13;99529.75;;;2.88;100.00
70546;BME280;58098;51.680;5.134;2023-01-16T01:31:39;99519.66;;;2.85;100.00
70546;BME280;58098;51.680;5.134;2023-01-16T01:34:04;99518.53;;;2.89;100.00
70546;BME280;58098;51.680;5.134;2023-01-16T01:36:29;99514.75;;;2.82;100.00
70546;BME280;58098;51.680;5.134;2023-01-16T01:38:54;99506.59;;;2.76;100.00
70546;BME280;58098;51.680;5.134;2023-01-16T01:41:20;99510.81;;;2.77;100.00
70546;BME280;58098;51.680;5.134;2023-01-16T01:43:53;99502.47;;;2.73;100.00
70546;BME280;58098;51.680;5.134;2023-01-16T01:46:26;99501.03;;;2.69;100.00
70546;BME280;58098;51.680;5.134;2023-01-16T01:48:58;99502.06;;;2.66;100.00
70546;BME280;58098;51.680;5.134;2023-01-16T01:51:30;99485.19;;;2.62;100.00
70546;BME280;58098;51.680;5.134;2023-01-16T01:54:07;99478.50;;;2.60;100.00
70546;BME280;58098;51.680;5.134;2023-01-16T01:56:47;99477.88;;;2.56;100.00
70546;BME280;58098;51.680;5.134;2023-01-16T01:59:20;99461.31;;;2.48;100.00
70546;BME280;58098;51.680;5.134;2023-01-16T02:01:47;99459.97;;;2.42;100.00
70546;BME280;58098;51.680;5.134;2023-01-16T02:04:16;99460.50;;;2.47;100.00
70546;BME280;58098;51.680;5.134;2023-01-16T02:06:52;99460.09;;;2.41;100.00
70546;BME280;58098;51.680;5.134;2023-01-16T02:09:19;99454.94;;;2.41;100.00
70546;BME280;58098;51.680;5.134;2023-01-16T02:14:18;99452.66;;;2.36;100.00
70546;BME280;58098;51.680;5.134;2023-01-16T02:16:45;99451.03;;;2.35;100.00
70546;BME280;58098;51.680;5.134;2023-01-16T02:19:48;99420.78;;;2.26;100.00
70546;BME280;58098;51.680;5.134;2023-01-16T02:32:15;99410.16;;;2.43;100.00
70546;BME280;58098;51.680;5.134;2023-01-16T02:37:31;99398.53;;;2.38;100.00
70546;BME280;58098;51.680;5.134;2023-01-16T02:40:16;99388.94;;;2.40;100.00
70546;BME280;58098;51.680;5.134;2023-01-16T02:43:41;99365.59;;;2.30;100.00
70546;BME280;58098;51.680;5.134;2023-01-16T02:51:10;99347.47;;;2.32;100.00
70546;BME280;58098;51.680;5.134;2023-01-16T02:53:57;99343.03;;;2.34;100.00
70546;BME280;58098;51.680;5.134;2023-01-16T02:56:31;99318.06;;;2.23;100.00
70546;BME280;58098;51.680;5.134;2023-01-16T02:59:00;99330.09;;;2.23;100.00
70546;BME280;58098;51.680;5.134;2023-01-16T03:01:26;99309.22;;;2.15;100.00
70546;BME280;58098;51.680;5.134;2023-01-16T03:08:51;99306.44;;;2.18;100.00
70546;BME280;58098;51.680;5.134;2023-01-16T03:11:25;99292.88;;;2.16;100.00
70546;BME280;58098;51.680;5.134;2023-01-16T03:16:40;99277.22;;;2.19;100.00
70546;BME280;58098;51.680;5.134;2023-01-16T03:27:39;99254.28;;;2.16;100.00
70546;BME280;58098;51.680;5.134;2023-01-16T03:30:12;99236.47;;;2.13;100.00
70546;BME280;58098;51.680;5.134;2023-01-16T03:32:44;99220.34;;;2.11;100.00
70546;BME280;58098;51.680;5.134;2023-01-16T03:35:19;99205.25;;;2.06;100.00
70546;BME280;58098;51.680;5.134;2023-01-16T03:37:49;99208.63;;;2.07;100.00
70546;BME280;58098;51.680;5.134;2023-01-16T03:40:25;99200.91;;;2.07;100.00
70546;BME280;58098;51.680;5.134;2023-01-16T03:43:05;99199.06;;;2.09;100.00
70546;BME280;58098;51.680;5.134;2023-01-16T03:45:41;99162.25;;;1.95;100.00
70546;BME280;58098;51.680;5.134;2023-01-16T03:48:23;99159.47;;;1.98;100.00
70546;BME280;58098;51.680;5.134;2023-01-16T03:50:53;99156.00;;;1.99;100.00
70546;BME280;58098;51.680;5.134;2023-01-16T03:53:24;99156.47;;;2.05;100.00
70546;BME280;58098;51.680;5.134;2023-01-16T03:58:30;99138.00;;;1.99;100.00
70546;BME280;58098;51.680;5.134;2023-01-16T04:01:04;99124.63;;;1.94;100.00
70546;BME280;58098;51.680;5.134;2023-01-16T04:03:41;99121.50;;;2.02;100.00
70546;BME280;58098;51.680;5.134;2023-01-16T04:06:29;99106.41;;;1.97;100.00
70546;BME280;58098;51.680;5.134;2023-01-16T04:08:57;99105.03;;;2.05;100.00
70546;BME280;58098;51.680;5.134;2023-01-16T04:11:25;99094.72;;;2.05;100.00
70546;BME280;58098;51.680;5.134;2023-01-16T04:13:53;99102.94;;;2.10;100.00
70546;BME280;58098;51.680;5.134;2023-01-16T04:16:21;99089.16;;;2.11;100.00
70546;BME280;58098;51.680;5.134;2023-01-16T04:18:48;99085.53;;;2.13;100.00
70546;BME280;58098;51.680;5.134;2023-01-16T04:21:15;99060.59;;;2.03;100.00
70546;BME280;58098;51.680;5.134;2023-01-16T04:23:41;99051.19;;;2.14;100.00
70546;BME280;58098;51.680;5.134;2023-01-16T04:26:07;99038.63;;;2.10;100.00
70546;BME280;58098;51.680;5.134;2023-01-16T04:28:32;99046.63;;;2.18;100.00
70546;BME280;58098;51.680;5.134;2023-01-16T04:30:57;99036.13;;;2.21;100.00
70546;BME280;58098;51.680;5.134;2023-01-16T04:33:23;99020.69;;;2.21;100.00
70546;BME280;58098;51.680;5.134;2023-01-16T04:35:48;99009.44;;;2.22;100.00
70546;BME280;58098;51.680;5.134;2023-01-16T04:38:13;98989.69;;;2.22;100.00
70546;BME280;58098;51.680;5.134;2023-01-16T04:40:39;99004.53;;;2.30;100.00
70546;BME280;58098;51.680;5.134;2023-01-16T04:43:04;98988.97;;;2.31;100.00
70546;BME280;58098;51.680;5.134;2023-01-16T04:45:29;98987.84;;;2.35;100.00
70546;BME280;58098;51.680;5.134;2023-01-16T04:47:54;98970.88;;;2.33;100.00
70546;BME280;58098;51.680;5.134;2023-01-16T04:50:20;98961.06;;;2.38;100.00
70546;BME280;58098;51.680;5.134;2023-01-16T04:52:46;98944.19;;;2.34;100.00
70546;BME280;58098;51.680;5.134;2023-01-16T04:55:11;98952.75;;;2.45;100.00
70546;BME280;58098;51.680;5.134;2023-01-16T04:57:37;98933.22;;;2.43;100.00
70546;BME280;58098;51.680;5.134;2023-01-16T05:00:04;98920.34;;;2.43;100.00
70546;BME280;58098;51.680;5.134;2023-01-16T05:02:30;98918.00;;;2.51;100.00
70546;BME280;58098;51.680;5.134;2023-01-16T05:04:55;98908.63;;;2.61;100.00
70546;BME280;58098;51.680;5.134;2023-01-16T05:07:21;98884.22;;;2.55;100.00
70546;BME280;58098;51.680;5.134;2023-01-16T05:09:46;98878.22;;;2.55;100.00
70546;BME280;58098;51.680;5.134;2023-01-16T05:12:11;98874.00;;;2.65;100.00
70546;BME280;58098;51.680;5.134;2023-01-16T05:14:36;98858.78;;;2.62;100.00
70546;BME280;58098;51.680;5.134;2023-01-16T05:17:02;98860.63;;;2.71;100.00
70546;BME280;58098;51.680;5.134;2023-01-16T05:19:27;98853.59;;;2.73;100.00
70546;BME280;58098;51.680;5.134;2023-01-16T05:21:52;98855.72;;;2.79;100.00
70546;BME280;58098;51.680;5.134;2023-01-16T05:24:18;98803.09;;;2.61;100.00
70546;BME280;58098;51.680;5.134;2023-01-16T05:26:43;98815.00;;;2.73;100.00
70546;BME280;58098;51.680;5.134;2023-01-16T05:29:08;98820.94;;;2.85;100.00
70546;BME280;58098;51.680;5.134;2023-01-16T05:31:34;98810.38;;;2.88;100.00
70546;BME280;58098;51.680;5.134;2023-01-16T05:33:59;98794.09;;;2.87;100.00
70546;BME280;58098;51.680;5.134;2023-01-16T05:36:24;98777.97;;;2.85;100.00
70546;BME280;58098;51.680;5.134;2023-01-16T05:38:50;98779.09;;;2.92;100.00
70546;BME280;58098;51.680;5.134;2023-01-16T05:41:16;98775.34;;;2.96;100.00
70546;BME280;58098;51.680;5.134;2023-01-16T05:43:41;98754.06;;;2.94;100.00
70546;BME280;58098;51.680;5.134;2023-01-16T05:46:07;98747.03;;;2.96;100.00
70546;BME280;58098;51.680;5.134;2023-01-16T05:48:32;98751.66;;;3.02;100.00
70546;BME280;58098;51.680;5.134;2023-01-16T05:51:00;98746.25;;;3.05;100.00
70546;BME280;58098;51.680;5.134;2023-01-16T05:53:25;98727.78;;;3.00;100.00
70546;BME280;58098;51.680;5.134;2023-01-16T05:55:53;98724.28;;;3.01;100.00
70546;BME280;58098;51.680;5.134;2023-01-16T05:58:18;98723.53;;;3.10;100.00
70546;BME280;58098;51.680;5.134;2023-01-16T06:00:44;98717.53;;;3.10;100.00
70546;BME280;58098;51.680;5.134;2023-01-16T06:03:09;98713.06;;;3.12;100.00
70546;BME280;58098;51.680;5.134;2023-01-16T06:05:35;98712.16;;;3.13;100.00
70546;BME280;58098;51.680;5.134;2023-01-16T06:08:01;98708.34;;;3.17;100.00
70546;BME280;58098;51.680;5.134;2023-01-16T06:10:27;98706.59;;;3.17;100.00
70546;BME280;58098;51.680;5.134;2023-01-16T06:12:52;98696.53;;;3.14;100.00
70546;BME280;58098;51.680;5.134;2023-01-16T06:15:18;98687.22;;;3.13;100.00
70546;BME280;58098;51.680;5.134;2023-01-16T06:17:43;98677.72;;;3.14;100.00
70546;BME280;58098;51.680;5.134;2023-01-16T06:20:10;98668.59;;;3.10;100.00
70546;BME280;58098;51.680;5.134;2023-01-16T06:22:35;98670.03;;;3.23;100.00
70546;BME280;58098;51.680;5.134;2023-01-16T06:25:01;98656.59;;;3.20;100.00
70546;BME280;58098;51.680;5.134;2023-01-16T06:27:26;98648.03;;;3.19;100.00
70546;BME280;58098;51.680;5.134;2023-01-16T06:29:52;98651.47;;;3.29;100.00
70546;BME280;58098;51.680;5.134;2023-01-16T06:32:17;98640.22;;;3.30;100.00
70546;BME280;58098;51.680;5.134;2023-01-16T06:34:43;98645.09;;;3.33;100.00
70546;BME280;58098;51.680;5.134;2023-01-16T06:37:09;98620.94;;;3.25;100.00
70546;BME280;58098;51.680;5.134;2023-01-16T06:39:35;98627.78;;;3.36;100.00
70546;BME280;58098;51.680;5.134;2023-01-16T06:42:00;98614.06;;;3.35;100.00
70546;BME280;58098;51.680;5.134;2023-01-16T06:44:28;98600.09;;;3.38;100.00
70546;BME280;58098;51.680;5.134;2023-01-16T06:46:54;98566.44;;;3.29;100.00
70546;BME280;58098;51.680;5.134;2023-01-16T06:49:19;98572.56;;;3.38;100.00
70546;BME280;58098;51.680;5.134;2023-01-16T06:51:44;98564.69;;;3.40;100.00
70546;BME280;58098;51.680;5.134;2023-01-16T06:54:10;98539.19;;;3.37;100.00
70546;BME280;58098;51.680;5.134;2023-01-16T06:56:35;98542.19;;;3.42;100.00
70546;BME280;58098;51.680;5.134;2023-01-16T06:59:00;98507.31;;;3.38;100.00
70546;BME280;58098;51.680;5.134;2023-01-16T07:01:26;98504.84;;;3.36;100.00
70546;BME280;58098;51.680;5.134;2023-01-16T07:03:52;98506.91;;;3.42;100.00
70546;BME280;58098;51.680;5.134;2023-01-16T07:06:17;98484.13;;;3.38;100.00
70546;BME280;58098;51.680;5.134;2023-01-16T07:08:42;98481.56;;;3.47;100.00
70546;BME280;58098;51.680;5.134;2023-01-16T07:11:08;98469.19;;;3.41;100.00
70546;BME280;58098;51.680;5.134;2023-01-16T07:13:34;98451.97;;;3.42;100.00
70546;BME280;58098;51.680;5.134;2023-01-16T07:15:59;98433.66;;;3.35;100.00
70546;BME280;58098;51.680;5.134;2023-01-16T07:18:44;98448.72;;;3.49;100.00
70546;BME280;58098;51.680;5.134;2023-01-16T07:21:36;98426.88;;;3.44;100.00
70546;BME280;58098;51.680;5.134;2023-01-16T07:24:23;98429.84;;;3.49;100.00
70546;BME280;58098;51.680;5.134;2023-01-16T07:26:53;98423.63;;;3.51;100.00
70546;BME280;58098;51.680;5.134;2023-01-16T07:29:22;98409.91;;;3.51;100.00
70546;BME280;58098;51.680;5.134;2023-01-16T07:31:48;98403.25;;;3.48;100.00
70546;BME280;58098;51.680;5.134;2023-01-16T07:34:13;98401.91;;;3.54;100.00
70546;BME280;58098;51.680;5.134;2023-01-16T07:36:38;98387.00;;;3.48;100.00
70546;BME280;58098;51.680;5.134;2023-01-16T07:39:04;98386.72;;;3.51;100.00
70546;BME280;58098;51.680;5.134;2023-01-16T07:41:29;98385.34;;;3.56;100.00
70546;BME280;58098;51.680;5.134;2023-01-16T07:43:54;98378.59;;;3.55;100.00
70546;BME280;58098;51.680;5.134;2023-01-16T07:46:19;98373.44;;;3.55;100.00
70546;BME280;58098;51.680;5.134;2023-01-16T07:48:45;98377.50;;;3.58;100.00
70546;BME280;58098;51.680;5.134;2023-01-16T07:51:10;98363.25;;;3.54;100.00
70546;BME280;58098;51.680;5.134;2023-01-16T07:53:35;98355.75;;;3.60;100.00
70546;BME280;58098;51.680;5.134;2023-01-16T07:56:01;98368.66;;;3.60;100.00
70546;BME280;58098;51.680;5.134;2023-01-16T07:58:27;98350.91;;;3.57;100.00
70546;BME280;58098;51.680;5.134;2023-01-16T08:00:54;98344.94;;;3.57;100.00
70546;BME280;58098;51.680;5.134;2023-01-16T08:03:20;98337.19;;;3.57;100.00
70546;BME280;58098;51.680;5.134;2023-01-16T08:05:46;98326.63;;;3.60;100.00
70546;BME280;58098;51.680;5.134;2023-01-16T08:08:12;98313.44;;;3.63;100.00
70546;BME280;58098;51.680;5.134;2023-01-16T08:10:38;98328.34;;;3.69;100.00
70546;BME280;58098;51.680;5.134;2023-01-16T08:13:04;98311.81;;;3.62;100.00
70546;BME280;58098;51.680;5.134;2023-01-16T08:15:30;98321.56;;;3.68;100.00
70546;BME280;58098;51.680;5.134;2023-01-16T08:17:55;98296.88;;;3.65;100.00
70546;BME280;58098;51.680;5.134;2023-01-16T08:20:21;98277.63;;;3.60;100.00
70546;BME280;58098;51.680;5.134;2023-01-16T08:22:49;98289.41;;;3.72;100.00
70546;BME280;58098;51.680;5.134;2023-01-16T08:25:20;98277.72;;;3.68;100.00
70546;BME280;58098;51.680;5.134;2023-01-16T08:27:45;98282.34;;;3.74;100.00
70546;BME280;58098;51.680;5.134;2023-01-16T08:30:11;98282.19;;;3.75;100.00
70546;BME280;58098;51.680;5.134;2023-01-16T08:32:37;98261.97;;;3.71;100.00
70546;BME280;58098;51.680;5.134;2023-01-16T08:35:03;98259.63;;;3.77;100.00
70546;BME280;58098;51.680;5.134;2023-01-16T08:37:29;98248.16;;;3.72;100.00
70546;BME280;58098;51.680;5.134;2023-01-16T08:39:55;98241.22;;;3.72;100.00
70546;BME280;58098;51.680;5.134;2023-01-16T08:42:20;98238.06;;;3.78;100.00
70546;BME280;58098;51.680;5.134;2023-01-16T08:45:04;98245.81;;;3.78;100.00
70546;BME280;58098;51.680;5.134;2023-01-16T08:47:48;98229.78;;;3.75;100.00
70546;BME280;58098;51.680;5.134;2023-01-16T08:50:32;98237.63;;;3.83;100.00
70546;BME280;58098;51.680;5.134;2023-01-16T08:53:16;98239.41;;;3.82;100.00
70546;BME280;58098;51.680;5.134;2023-01-16T08:55:41;98228.69;;;3.87;100.00
70546;BME280;58098;51.680;5.134;2023-01-16T08:58:06;98227.97;;;3.85;100.00
70546;BME280;58098;51.680;5.134;2023-01-16T09:00:33;98206.47;;;3.76;100.00
70546;BME280;58098;51.680;5.134;2023-01-16T09:02:59;98210.25;;;3.82;100.00
70546;BME280;58098;51.680;5.134;2023-01-16T09:05:26;98215.63;;;3.88;100.00
70546;BME280;58098;51.680;5.134;2023-01-16T09:07:52;98215.47;;;3.90;100.00
70546;BME280;58098;51.680;5.134;2023-01-16T09:10:18;98215.34;;;3.91;100.00
70546;BME280;58098;51.680;5.134;2023-01-16T09:12:43;98197.56;;;3.88;100.00
70546;BME280;58098;51.680;5.134;2023-01-16T09:15:27;98205.81;;;3.92;100.00
70546;BME280;58098;51.680;5.134;2023-01-16T09:17:52;98204.16;;;4.00;100.00
70546;BME280;58098;51.680;5.134;2023-01-16T09:20:18;98196.13;;;4.04;100.00
70546;BME280;58098;51.680;5.134;2023-01-16T09:22:43;98196.63;;;4.07;100.00
70546;BME280;58098;51.680;5.134;2023-01-16T09:25:09;98181.88;;;3.99;100.00
70546;BME280;58098;51.680;5.134;2023-01-16T09:27:34;98182.69;;;4.00;100.00
70546;BME280;58098;51.680;5.134;2023-01-16T09:30:00;98177.38;;;4.01;100.00
70546;BME280;58098;51.680;5.134;2023-01-16T09:32:25;98187.41;;;4.05;100.00
70546;BME280;58098;51.680;5.134;2023-01-16T09:34:51;98168.31;;;3.97;100.00
70546;BME280;58098;51.680;5.134;2023-01-16T09:37:16;98172.38;;;4.00;100.00
70546;BME280;58098;51.680;5.134;2023-01-16T09:39:42;98164.47;;;4.01;100.00
70546;BME280;58098;51.680;5.134;2023-01-16T09:45:11;98166.94;;;4.03;100.00
70546;BME280;58098;51.680;5.134;2023-01-16T09:47:40;98168.13;;;4.09;100.00
70546;BME280;58098;51.680;5.134;2023-01-16T09:50:17;98145.63;;;4.01;100.00
70546;BME280;58098;51.680;5.134;2023-01-16T09:52:47;98138.19;;;3.98;100.00
70546;BME280;58098;51.680;5.134;2023-01-16T09:55:38;98141.63;;;4.07;100.00
70546;BME280;58098;51.680;5.134;2023-01-16T09:58:23;98156.41;;;4.14;100.00
70546;BME280;58098;51.680;5.134;2023-01-16T10:01:08;98129.72;;;4.06;100.00
70546;BME280;58098;51.680;5.134;2023-01-16T10:03:34;98141.34;;;4.10;100.00
70546;BME280;58098;51.680;5.134;2023-01-16T10:06:20;98134.81;;;4.15;100.00
70546;BME280;58098;51.680;5.134;2023-01-16T10:11:28;98128.53;;;4.18;100.00
70546;BME280;58098;51.680;5.134;2023-01-16T10:14:27;98120.81;;;4.18;100.00
70546;BME280;58098;51.680;5.134;2023-01-16T10:17:19;98133.34;;;4.30;100.00
70546;BME280;58098;51.680;5.134;2023-01-16T10:20:07;98123.41;;;4.43;100.00
70546;BME280;58098;51.680;5.134;2023-01-16T10:30:22;98104.38;;;5.21;100.00
70546;BME280;58098;51.680;5.134;2023-01-16T10:33:37;98114.56;;;5.57;100.00
70546;BME280;58098;51.680;5.134;2023-01-16T10:36:04;98088.84;;;5.63;100.00
70546;BME280;58098;51.680;5.134;2023-01-16T10:38:47;98097.16;;;5.83;100.00
70546;BME280;58098;51.680;5.134;2023-01-16T10:41:20;98093.00;;;5.90;100.00
70546;BME280;58098;51.680;5.134;2023-01-16T10:44:33;98089.44;;;5.99;100.00
70546;BME280;58098;51.680;5.134;2023-01-16T10:47:23;98070.84;;;5.87;100.00
70546;BME280;58098;51.680;5.134;2023-01-16T10:50:10;98066.63;;;5.94;100.00
70546;BME280;58098;51.680;5.134;2023-01-16T10:52:36;98075.03;;;5.96;100.00
70546;BME280;58098;51.680;5.134;2023-01-16T10:55:02;98055.47;;;5.94;100.00
70546;BME280;58098;51.680;5.134;2023-01-16T10:57:28;98051.91;;;5.95;100.00
70546;BME280;58098;51.680;5.134;2023-01-16T10:59:58;98032.34;;;5.92;100.00
70546;BME280;58098;51.680;5.134;2023-01-16T11:04:56;98023.91;;;5.82;100.00
70546;BME280;58098;51.680;5.134;2023-01-16T11:07:27;98026.78;;;5.79;100.00
70546;BME280;58098;51.680;5.134;2023-01-16T11:09:52;98028.09;;;5.75;100.00
70546;BME280;58098;51.680;5.134;2023-01-16T11:12:27;98030.06;;;5.81;100.00
70546;BME280;58098;51.680;5.134;2023-01-16T11:15:19;98019.69;;;5.73;100.00
70546;BME280;58098;51.680;5.134;2023-01-16T11:18:18;98008.53;;;5.81;100.00
70546;BME280;58098;51.680;5.134;2023-01-16T11:20:53;98017.91;;;5.82;100.00
70546;BME280;58098;51.680;5.134;2023-01-16T11:23:21;97998.56;;;5.86;100.00
70546;BME280;58098;51.680;5.134;2023-01-16T11:25:49;97995.78;;;5.87;100.00
70546;BME280;58098;51.680;5.134;2023-01-16T11:28:21;97987.72;;;5.90;100.00
70546;BME280;58098;51.680;5.134;2023-01-16T11:30:48;97999.84;;;5.98;100.00
70546;BME280;58098;51.680;5.134;2023-01-16T11:33:19;97990.59;;;6.04;100.00
70546;BME280;58098;51.680;5.134;2023-01-16T11:35:57;97978.47;;;6.04;100.00
70546;BME280;58098;51.680;5.134;2023-01-16T11:38:25;97984.63;;;6.11;100.00
70546;BME280;58098;51.680;5.134;2023-01-16T11:40:52;97970.56;;;6.06;100.00
70546;BME280;58098;51.680;5.134;2023-01-16T11:43:24;97960.22;;;6.06;100.00
70546;BME280;58098;51.680;5.134;2023-01-16T11:49:17;97964.22;;;6.24;100.00
70546;BME280;58098;51.680;5.134;2023-01-16T11:51:43;97945.78;;;6.19;100.00
70546;BME280;58098;51.680;5.134;2023-01-16T11:54:13;97939.16;;;6.25;100.00
70546;BME280;58098;51.680;5.134;2023-01-16T11:56:45;97935.25;;;6.29;100.00
70546;BME280;58098;51.680;5.134;2023-01-16T12:04:43;97924.91;;;6.29;100.00
70546;BME280;58098;51.680;5.134;2023-01-16T12:07:49;97918.44;;;6.25;100.00
70546;BME280;58098;51.680;5.134;2023-01-16T12:13:06;97915.22;;;6.23;100.00
70546;BME280;58098;51.680;5.134;2023-01-16T12:15:56;97911.63;;;6.24;100.00
70546;BME280;58098;51.680;5.134;2023-01-16T12:21:13;97898.22;;;6.20;100.00
70546;BME280;58098;51.680;5.134;2023-01-16T12:23:52;97890.63;;;6.19;100.00
70546;BME280;58098;51.680;5.134;2023-01-16T12:26:26;97886.06;;;6.21;100.00
70546;BME280;58098;51.680;5.134;2023-01-16T12:29:15;97878.97;;;6.23;100.00
70546;BME280;58098;51.680;5.134;2023-01-16T12:32:06;97876.38;;;6.23;100.00
70546;BME280;58098;51.680;5.134;2023-01-16T12:39:50;97861.47;;;6.25;100.00
70546;BME280;58098;51.680;5.134;2023-01-16T12:42:31;97857.91;;;6.26;100.00
70546;BME280;58098;51.680;5.134;2023-01-16T12:50:58;97832.47;;;6.37;100.00
70546;BME280;58098;51.680;5.134;2023-01-16T12:56:38;97829.69;;;6.47;100.00
70546;BME280;58098;51.680;5.134;2023-01-16T13:01:48;97826.31;;;6.38;100.00
70546;BME280;58098;51.680;5.134;2023-01-16T13:04:21;97815.34;;;6.28;100.00
70546;BME280;58098;51.680;5.134;2023-01-16T13:06:54;97809.72;;;6.25;100.00
70546;BME280;58098;51.680;5.134;2023-01-16T13:09:32;97819.72;;;6.28;100.00
70546;BME280;58098;51.680;5.134;2023-01-16T13:12:17;97810.97;;;6.29;100.00
70546;BME280;58098;51.680;5.134;2023-01-16T13:15:06;97795.84;;;6.10;100.00
70546;BME280;58098;51.680;5.134;2023-01-16T13:17:43;97801.34;;;6.15;100.00
70546;BME280;58098;51.680;5.134;2023-01-16T13:20:12;97797.31;;;6.04;100.00
70546;BME280;58098;51.680;5.134;2023-01-16T13:22:46;97794.59;;;6.06;100.00
70546;BME280;58098;51.680;5.134;2023-01-16T13:25:36;97804.56;;;6.17;100.00
70546;BME280;58098;51.680;5.134;2023-01-16T13:28:07;97803.78;;;6.08;100.00
70546;BME280;58098;51.680;5.134;2023-01-16T13:30:40;97795.53;;;6.05;100.00
70546;BME280;58098;51.680;5.134;2023-01-16T13:33:15;97804.44;;;6.02;100.00
70546;BME280;58098;51.680;5.134;2023-01-16T13:44:02;97808.19;;;5.83;100.00
70546;BME280;58098;51.680;5.134;2023-01-16T13:46:50;97813.69;;;5.80;100.00
70546;BME280;58098;51.680;5.134;2023-01-16T13:49:22;97821.28;;;5.82;100.00
70546;BME280;58098;51.680;5.134;2023-01-16T13:51:49;97810.63;;;5.77;100.00
70546;BME280;58098;51.680;5.134;2023-01-16T13:54:20;97804.69;;;5.68;100.00
70546;BME280;58098;51.680;5.134;2023-01-16T13:57:07;97799.19;;;5.71;100.00
70546;BME280;58098;51.680;5.134;2023-01-16T14:02:42;97815.66;;;5.70;100.00
70546;BME280;58098;51.680;5.134;2023-01-16T14:10:42;97800.50;;;5.51;100.00
70546;BME280;58098;51.680;5.134;2023-01-16T14:15:55;97795.03;;;5.38;100.00
70546;BME280;58098;51.680;5.134;2023-01-16T14:21:13;97810.84;;;5.43;100.00
70546;BME280;58098;51.680;5.134;2023-01-16T14:23:45;97794.25;;;5.38;100.00
70546;BME280;58098;51.680;5.134;2023-01-16T14:26:50;97806.81;;;5.41;100.00
70546;BME280;58098;51.680;5.134;2023-01-16T14:29:30;97791.34;;;5.32;100.00
70546;BME280;58098;51.680;5.134;2023-01-16T14:32:00;97797.94;;;5.35;100.00
70546;BME280;58098;51.680;5.134;2023-01-16T14:34:32;97798.41;;;5.39;100.00
70546;BME280;58098;51.680;5.134;2023-01-16T14:37:04;97798.28;;;5.24;100.00
70546;BME280;58098;51.680;5.134;2023-01-16T14:39:37;97778.25;;;5.18;100.00
70546;BME280;58098;51.680;5.134;2023-01-16T14:42:17;97800.19;;;5.38;100.00
70546;BME280;58098;51.680;5.134;2023-01-16T14:54:31;97791.78;;;5.36;100.00
70546;BME280;58098;51.680;5.134;2023-01-16T14:57:17;97789.84;;;5.38;100.00
70546;BME280;58098;51.680;5.134;2023-01-16T14:59:54;97788.25;;;5.29;100.00
70546;BME280;58098;51.680;5.134;2023-01-16T15:02:37;97805.03;;;5.33;100.00
70546;BME280;58098;51.680;5.134;2023-01-16T15:05:28;97796.81;;;5.29;100.00
70546;BME280;58098;51.680;5.134;2023-01-16T15:08:16;97786.47;;;5.21;100.00
70546;BME280;58098;51.680;5.134;2023-01-16T15:10:45;97801.50;;;5.26;100.00
70546;BME280;58098;51.680;5.134;2023-01-16T15:13:36;97794.91;;;5.15;100.00
70546;BME280;58098;51.680;5.134;2023-01-16T15:16:21;97794.41;;;5.12;100.00
70546;BME280;58098;51.680;5.134;2023-01-16T15:19:18;97804.88;;;5.18;100.00